createdAt,value
2023-02-15T00:00:11.721Z,18.00
2023-02-15T00:02:59.334Z,22.20
2023-02-15T00:05:26.692Z,26.77
2023-02-15T00:07:54.288Z,20.48
2023-02-15T00:10:21.591Z,23.25
2023-02-15T00:12:49.150Z,21.60
2023-02-15T00:15:16.509Z,19.48
2023-02-15T00:17:44.066Z,20.70
2023-02-15T00:20:12.053Z,19.23
2023-02-15T00:22:39.606Z,18.27
2023-02-15T00:25:07.150Z,17.33
2023-02-15T00:27:35.539Z,16.50
2023-02-15T00:30:02.943Z,15.98
2023-02-15T00:32:30.576Z,16.40
2023-02-15T00:34:57.855Z,15.70
2023-02-15T00:37:25.449Z,17.80
2023-02-15T00:39:52.789Z,17.60
2023-02-15T00:42:20.340Z,15.60
2023-02-15T00:44:47.635Z,16.05
2023-02-15T00:47:15.186Z,16.77
2023-02-15T00:49:42.436Z,17.00
2023-02-15T00:52:10.137Z,16.13
2023-02-15T00:54:39.771Z,16.40
2023-02-15T00:57:07.477Z,15.10
2023-02-15T00:59:35.985Z,13.52
2023-02-15T01:02:03.575Z,17.05
2023-02-15T01:04:30.957Z,15.18
2023-02-15T01:06:58.619Z,14.73
2023-02-15T01:09:25.991Z,13.32
2023-02-15T01:11:53.794Z,15.88
2023-02-15T01:14:21.070Z,13.43
2023-02-15T01:16:48.724Z,16.25
2023-02-15T01:19:16.040Z,16.73
2023-02-15T01:21:43.613Z,15.63
2023-02-15T01:24:15.650Z,17.95
2023-02-15T01:26:43.252Z,20.83
2023-02-15T01:29:10.521Z,18.48
2023-02-15T01:31:40.327Z,18.17
2023-02-15T01:34:07.776Z,17.55
2023-02-15T01:36:36.315Z,17.15
2023-02-15T01:39:03.913Z,16.83
2023-02-15T01:41:32.017Z,17.88
2023-02-15T01:44:03.106Z,16.77
2023-02-15T01:46:39.380Z,18.27
2023-02-15T01:49:28.613Z,18.30
2023-02-15T01:51:56.746Z,17.40
2023-02-15T01:54:32.596Z,18.10
2023-02-15T01:57:10.344Z,18.25
2023-02-15T01:59:44.236Z,17.80
2023-02-15T02:02:16.694Z,17.83
2023-02-15T02:04:51.886Z,18.02
2023-02-15T02:07:25.007Z,20.88
2023-02-15T02:09:53.109Z,19.17
2023-02-15T02:12:23.916Z,18.67
2023-02-15T02:14:54.050Z,18.27
2023-02-15T02:18:08.714Z,17.05
2023-02-15T02:20:38.702Z,16.40
2023-02-15T02:23:50.703Z,16.55
2023-02-15T02:27:24.417Z,14.85
2023-02-15T02:30:44.400Z,18.45
2023-02-15T02:33:14.565Z,16.88
2023-02-15T02:36:12.710Z,17.95
2023-02-15T02:39:05.035Z,17.65
2023-02-15T02:41:51.400Z,16.95
2023-02-15T02:44:32.358Z,16.67
2023-02-15T02:47:25.892Z,16.80
2023-02-15T02:50:10.636Z,16.42
2023-02-15T02:52:52.360Z,16.10
2023-02-15T02:55:32.758Z,16.23
2023-02-15T02:58:16.177Z,15.75
2023-02-15T03:01:07.267Z,16.95
2023-02-15T03:03:57.065Z,15.23
2023-02-15T03:06:41.467Z,15.32
2023-02-15T03:09:47.918Z,15.18
2023-02-15T03:12:25.599Z,15.63
2023-02-15T03:15:02.568Z,15.10
2023-02-15T03:17:36.603Z,14.57
2023-02-15T03:20:15.150Z,14.80
2023-02-15T03:22:54.291Z,16.90
2023-02-15T03:25:42.866Z,15.95
2023-02-15T03:28:19.088Z,15.63
2023-02-15T03:30:54.760Z,16.42
2023-02-15T03:33:24.939Z,17.15
2023-02-15T03:36:07.476Z,16.80
2023-02-15T03:38:53.321Z,15.35
2023-02-15T03:41:26.013Z,16.25
2023-02-15T03:44:06.092Z,16.17
2023-02-15T03:47:08.128Z,15.25
2023-02-15T03:49:49.952Z,16.15
2023-02-15T03:52:19.027Z,16.58
2023-02-15T03:54:49.517Z,15.63
2023-02-15T03:57:43.659Z,19.17
2023-02-15T04:00:34.455Z,24.75
2023-02-15T04:03:17.017Z,20.45
2023-02-15T04:05:46.450Z,16.98
2023-02-15T04:08:14.598Z,17.45
2023-02-15T04:10:54.420Z,18.00
2023-02-15T04:13:32.232Z,19.75
2023-02-15T04:16:07.134Z,22.38
2023-02-15T04:19:02.369Z,25.60
2023-02-15T04:21:50.606Z,21.27
2023-02-15T04:24:37.149Z,21.92
2023-02-15T04:27:06.862Z,18.40
2023-02-15T04:29:34.457Z,16.40
2023-02-15T04:32:03.568Z,15.73
2023-02-15T04:34:31.202Z,19.35
2023-02-15T04:36:58.481Z,18.15
2023-02-15T04:39:26.083Z,17.90
2023-02-15T04:41:53.433Z,16.02
2023-02-15T04:44:20.964Z,16.52
2023-02-15T04:46:48.363Z,16.00
2023-02-15T04:49:16.195Z,18.30
2023-02-15T04:51:43.563Z,17.60
2023-02-15T04:54:11.141Z,17.80
2023-02-15T04:56:40.000Z,19.42
2023-02-15T04:59:07.679Z,18.42
2023-02-15T05:01:35.127Z,29.73
2023-02-15T05:04:02.859Z,22.85
2023-02-15T05:06:30.619Z,24.13
2023-02-15T05:09:00.278Z,22.08
2023-02-15T05:11:28.130Z,22.13
2023-02-15T05:13:55.915Z,21.40
2023-02-15T05:16:23.322Z,20.50
2023-02-15T05:18:51.023Z,19.77
2023-02-15T05:21:18.367Z,24.80
2023-02-15T05:23:46.121Z,23.40
2023-02-15T05:26:37.151Z,24.15
2023-02-15T05:29:05.970Z,20.70
2023-02-15T05:31:34.678Z,24.88
2023-02-15T05:34:03.165Z,23.30
2023-02-15T05:36:30.497Z,23.27
2023-02-15T05:38:58.193Z,22.88
2023-02-15T05:41:26.656Z,22.92
2023-02-15T05:43:57.957Z,22.60
2023-02-15T05:46:25.274Z,21.67
2023-02-15T05:48:52.845Z,23.52
2023-02-15T05:51:20.148Z,24.83
2023-02-15T05:53:47.765Z,23.58
2023-02-15T05:56:15.024Z,24.20
2023-02-15T05:58:43.097Z,23.25
2023-02-15T06:01:13.904Z,25.00
2023-02-15T06:03:41.800Z,25.80
2023-02-15T06:06:09.548Z,25.23
2023-02-15T06:08:39.022Z,24.02
2023-02-15T06:11:07.076Z,25.23
2023-02-15T06:13:38.501Z,24.58
2023-02-15T06:16:08.092Z,24.95
2023-02-15T06:18:35.927Z,25.80
2023-02-15T06:21:03.455Z,26.60
2023-02-15T06:23:31.194Z,24.67
2023-02-15T06:25:58.551Z,25.77
2023-02-15T06:28:26.642Z,26.15
2023-02-15T06:30:54.432Z,25.08
2023-02-15T06:33:22.871Z,25.77
2023-02-15T06:35:50.172Z,25.42
2023-02-15T06:38:18.622Z,27.63
2023-02-15T06:40:45.933Z,24.98
2023-02-15T06:43:14.043Z,26.17
2023-02-15T06:45:43.351Z,25.98
2023-02-15T06:48:12.218Z,26.73
2023-02-15T06:50:40.172Z,26.05
2023-02-15T06:53:07.809Z,25.58
2023-02-15T06:55:35.077Z,24.65
2023-02-15T06:58:02.718Z,25.48
2023-02-15T07:00:30.072Z,27.30
2023-02-15T07:02:59.388Z,27.17
2023-02-15T07:05:32.417Z,24.42
2023-02-15T07:08:01.464Z,26.70
2023-02-15T07:10:29.654Z,27.77
2023-02-15T07:12:57.337Z,25.65
2023-02-15T07:15:25.462Z,26.10
2023-02-15T07:17:53.135Z,26.52
2023-02-15T07:20:23.919Z,27.00
2023-02-15T07:22:52.197Z,25.30
2023-02-15T07:25:19.736Z,22.88
2023-02-15T07:27:47.371Z,25.92
2023-02-15T07:30:18.414Z,22.80
2023-02-15T07:33:05.693Z,26.20
2023-02-15T07:35:34.319Z,26.73
2023-02-15T07:38:02.340Z,27.73
2023-02-15T07:40:29.652Z,32.25
2023-02-15T07:43:00.200Z,27.45
2023-02-15T07:45:28.259Z,23.92
2023-02-15T07:47:55.855Z,27.63
2023-02-15T07:50:23.339Z,28.77
2023-02-15T07:52:50.935Z,24.85
2023-02-15T07:55:18.206Z,27.02
2023-02-15T07:57:47.868Z,26.33
2023-02-15T08:00:26.016Z,26.90
2023-02-15T08:03:14.885Z,27.85
2023-02-15T08:05:45.220Z,27.40
2023-02-15T08:08:33.988Z,29.60
2023-02-15T08:11:37.687Z,26.50
2023-02-15T08:14:17.697Z,25.58
2023-02-15T08:16:53.985Z,25.95
2023-02-15T08:19:24.421Z,27.58
2023-02-15T08:21:59.981Z,25.52
2023-02-15T08:24:33.942Z,25.13
2023-02-15T08:27:07.403Z,23.00
2023-02-15T08:29:37.226Z,23.92
2023-02-15T08:32:13.226Z,22.50
2023-02-15T08:34:43.128Z,21.80
2023-02-15T08:37:10.646Z,19.63
2023-02-15T08:39:38.373Z,21.75
2023-02-15T08:42:05.811Z,20.25
2023-02-15T08:44:33.409Z,20.15
2023-02-15T08:47:04.882Z,18.88
2023-02-15T08:49:33.063Z,18.15
2023-02-15T08:52:00.865Z,15.55
2023-02-15T08:54:28.630Z,17.20
2023-02-15T08:56:55.969Z,17.00
2023-02-15T08:59:25.230Z,16.38
2023-02-15T09:01:54.200Z,15.45
2023-02-15T09:04:22.225Z,13.57
2023-02-15T09:06:51.573Z,15.35
2023-02-15T09:09:20.727Z,15.55
2023-02-15T09:11:55.771Z,15.70
2023-02-15T09:14:28.282Z,15.70
2023-02-15T09:16:56.454Z,17.02
2023-02-15T09:19:24.990Z,14.45
2023-02-15T09:21:52.694Z,20.85
2023-02-15T09:24:20.657Z,14.70
2023-02-15T09:26:49.746Z,17.02
2023-02-15T09:29:19.497Z,14.90
2023-02-15T09:31:51.025Z,18.42
2023-02-15T09:34:23.432Z,21.10
2023-02-15T09:36:52.767Z,15.15
2023-02-15T09:39:26.597Z,15.23
2023-02-15T09:41:56.421Z,14.85
2023-02-15T09:44:57.999Z,15.00
2023-02-15T09:48:18.867Z,14.90
2023-02-15T09:51:01.516Z,15.98
2023-02-15T09:54:05.158Z,15.98
2023-02-15T09:57:01.755Z,14.90
2023-02-15T09:59:38.088Z,13.50
2023-02-15T10:02:29.687Z,12.85
2023-02-15T10:05:25.577Z,15.10
2023-02-15T10:08:24.482Z,13.80
2023-02-15T10:11:27.775Z,14.02
2023-02-15T10:14:23.326Z,13.30
2023-02-15T10:17:24.400Z,14.55
2023-02-15T10:20:42.930Z,14.95
2023-02-15T10:23:28.859Z,15.50
2023-02-15T10:26:23.966Z,15.10
2023-02-15T10:29:37.588Z,15.48
2023-02-15T10:32:27.526Z,14.30
2023-02-15T10:35:16.830Z,18.92
2023-02-15T10:38:00.522Z,15.15
2023-02-15T10:41:00.872Z,15.05
2023-02-15T10:44:26.662Z,15.02
2023-02-15T10:47:15.216Z,16.50
2023-02-15T10:49:58.952Z,15.40
2023-02-15T10:52:54.849Z,15.30
2023-02-15T10:55:43.526Z,13.63
2023-02-15T10:58:30.492Z,14.35
2023-02-15T11:01:34.529Z,17.08
2023-02-15T11:04:19.343Z,15.98
2023-02-15T11:07:00.424Z,15.70
2023-02-15T11:09:42.184Z,14.90
2023-02-15T11:12:18.708Z,15.68
2023-02-15T11:15:05.142Z,14.35
2023-02-15T11:17:43.352Z,15.05
2023-02-15T11:20:39.612Z,15.35
2023-02-15T11:23:17.321Z,14.27
2023-02-15T11:26:08.704Z,14.82
2023-02-15T11:28:46.160Z,14.77
2023-02-15T11:31:22.138Z,14.40
2023-02-15T11:33:59.812Z,14.52
2023-02-15T11:36:48.038Z,16.10
2023-02-15T11:39:22.658Z,15.80
2023-02-15T11:41:56.922Z,15.55
2023-02-15T11:44:48.662Z,14.63
2023-02-15T11:47:16.293Z,14.73
2023-02-15T11:49:46.763Z,15.60
2023-02-15T11:52:19.462Z,14.57
2023-02-15T11:54:52.322Z,16.15
2023-02-15T11:57:42.155Z,14.82
2023-02-15T12:00:49.466Z,15.52
2023-02-15T12:03:40.889Z,15.40
2023-02-15T12:06:21.202Z,14.43
2023-02-15T12:09:02.021Z,15.63
2023-02-15T12:11:39.763Z,14.38
2023-02-15T12:14:10.575Z,15.00
2023-02-15T12:16:54.780Z,14.50
2023-02-15T12:19:33.926Z,15.07
2023-02-15T12:22:08.041Z,14.85
2023-02-15T12:24:46.775Z,15.05
2023-02-15T12:27:36.700Z,15.63
2023-02-15T12:30:36.990Z,14.60
2023-02-15T12:33:17.336Z,14.55
2023-02-15T12:35:45.674Z,14.23
2023-02-15T12:38:13.349Z,13.23
2023-02-15T12:40:41.254Z,15.82
2023-02-15T12:43:36.242Z,15.80
2023-02-15T12:46:26.956Z,15.13
2023-02-15T12:49:11.188Z,13.88
2023-02-15T12:51:57.726Z,14.70
2023-02-15T12:54:43.479Z,15.23
2023-02-15T12:57:30.199Z,15.13
2023-02-15T13:00:20.413Z,14.95
2023-02-15T13:03:00.252Z,15.23
2023-02-15T13:05:40.765Z,15.93
2023-02-15T13:08:18.893Z,15.63
2023-02-15T13:11:01.951Z,15.38
2023-02-15T13:13:36.633Z,15.13
2023-02-15T13:16:12.320Z,16.58
2023-02-15T13:18:45.445Z,15.15
2023-02-15T13:21:21.716Z,16.55
2023-02-15T13:24:19.037Z,16.10
2023-02-15T13:26:48.636Z,15.40
2023-02-15T13:29:34.750Z,13.70
2023-02-15T13:32:31.376Z,12.85
2023-02-15T13:35:06.113Z,13.18
2023-02-15T13:37:51.330Z,12.73
2023-02-15T13:40:56.389Z,14.57
2023-02-15T13:43:50.628Z,13.60
2023-02-15T13:46:45.548Z,14.27
2023-02-15T13:49:26.533Z,15.80
2023-02-15T13:52:24.756Z,13.48
2023-02-15T13:55:23.181Z,12.70
2023-02-15T13:58:21.666Z,12.27
2023-02-15T14:01:23.730Z,12.13
2023-02-15T14:04:42.258Z,12.43
2023-02-15T14:07:31.096Z,13.15
2023-02-15T14:10:16.160Z,13.32
2023-02-15T14:13:10.747Z,13.43
2023-02-15T14:16:08.853Z,14.38
2023-02-15T14:18:52.205Z,12.52
2023-02-15T14:22:09.424Z,12.82
2023-02-15T14:24:50.722Z,13.63
2023-02-15T14:27:29.101Z,14.30
2023-02-15T14:30:03.172Z,14.32
2023-02-15T14:32:50.904Z,13.90
2023-02-15T14:35:31.334Z,14.13
2023-02-15T14:38:10.684Z,15.10
2023-02-15T14:41:03.298Z,14.65
2023-02-15T14:43:55.556Z,15.93
2023-02-15T14:46:38.070Z,16.05
2023-02-15T14:49:18.436Z,16.88
2023-02-15T14:51:49.006Z,16.85
2023-02-15T14:54:19.069Z,16.77
2023-02-15T14:57:07.787Z,18.15
2023-02-15T14:59:59.398Z,19.00
2023-02-15T15:02:48.437Z,17.10
2023-02-15T15:05:36.859Z,18.48
2023-02-15T15:08:07.363Z,17.98
2023-02-15T15:10:46.938Z,19.10
2023-02-15T15:13:32.834Z,17.83
2023-02-15T15:16:38.469Z,19.98
2023-02-15T15:19:12.814Z,21.25
2023-02-15T15:21:56.255Z,20.83
2023-02-15T15:24:39.356Z,19.50
2023-02-15T15:27:51.403Z,19.85
2023-02-15T15:30:24.797Z,23.27
2023-02-15T15:32:55.279Z,22.40
2023-02-15T15:35:38.387Z,22.17
2023-02-15T15:38:47.131Z,23.90
2023-02-15T15:41:32.037Z,23.25
2023-02-15T15:44:43.128Z,23.58
2023-02-15T15:47:19.645Z,24.13
2023-02-15T15:49:48.552Z,24.67
2023-02-15T15:52:22.233Z,26.17
2023-02-15T15:54:57.328Z,25.90
2023-02-15T15:57:34.943Z,25.33
2023-02-15T16:00:03.854Z,28.73
2023-02-15T16:02:31.539Z,29.17
2023-02-15T16:05:10.236Z,30.45
2023-02-15T16:07:41.181Z,30.60
2023-02-15T16:10:23.162Z,31.23
2023-02-15T16:12:52.357Z,30.02
2023-02-15T16:15:46.220Z,30.33
2023-02-15T16:18:18.453Z,31.15
2023-02-15T16:20:57.904Z,31.63
2023-02-15T16:23:37.298Z,30.02
2023-02-15T16:26:13.290Z,28.65
2023-02-15T16:28:41.141Z,29.27
2023-02-15T16:31:15.838Z,31.52
2023-02-15T16:33:45.981Z,31.60
2023-02-15T16:36:29.230Z,31.23
2023-02-15T16:38:56.836Z,34.55
2023-02-15T16:41:28.825Z,36.33
2023-02-15T16:44:04.190Z,42.70
2023-02-15T16:46:51.085Z,44.67
2023-02-15T16:49:27.107Z,44.67
2023-02-15T16:52:09.166Z,45.78
2023-02-15T16:54:37.449Z,42.20
2023-02-15T16:57:04.871Z,37.13
2023-02-15T16:59:40.938Z,41.83
2023-02-15T17:02:43.031Z,43.03
2023-02-15T17:05:20.290Z,43.08
2023-02-15T17:08:19.039Z,40.50
2023-02-15T17:11:23.608Z,40.75
2023-02-15T17:14:06.610Z,40.33
2023-02-15T17:16:41.843Z,46.42
2023-02-15T17:19:51.562Z,47.42
2023-02-15T17:22:28.177Z,50.15
2023-02-15T17:25:05.581Z,51.78
2023-02-15T17:27:35.807Z,53.58
2023-02-15T17:30:18.538Z,52.85
2023-02-15T17:33:02.977Z,52.03
2023-02-15T17:35:34.576Z,57.50
2023-02-15T17:38:21.261Z,57.28
2023-02-15T17:40:48.690Z,55.65
2023-02-15T17:43:16.277Z,50.80
2023-02-15T17:45:52.134Z,47.33
2023-02-15T17:48:36.610Z,47.58
2023-02-15T17:51:07.605Z,47.58
2023-02-15T17:53:35.397Z,47.60
2023-02-15T17:56:10.518Z,46.72
2023-02-15T17:58:39.463Z,44.80
2023-02-15T18:01:38.217Z,45.00
2023-02-15T18:04:29.012Z,43.33
2023-02-15T18:07:15.517Z,42.55
2023-02-15T18:10:01.888Z,43.28
2023-02-15T18:12:33.172Z,42.15
2023-02-15T18:15:01.818Z,42.85
2023-02-15T18:17:39.755Z,45.38
2023-02-15T18:20:36.957Z,43.35
2023-02-15T18:23:04.453Z,45.28
2023-02-15T18:25:32.099Z,39.65
2023-02-15T18:27:59.464Z,41.42
2023-02-15T18:30:27.752Z,38.95
2023-02-15T18:32:58.992Z,40.88
2023-02-15T18:35:33.285Z,40.20
2023-02-15T18:38:02.325Z,39.95
2023-02-15T18:40:30.849Z,41.08
2023-02-15T18:42:58.253Z,39.00
2023-02-15T18:45:33.266Z,41.03
2023-02-15T18:48:01.002Z,40.95
2023-02-15T18:50:34.393Z,40.70
2023-02-15T18:53:05.137Z,38.10
2023-02-15T18:55:35.487Z,38.95
2023-02-15T18:58:03.085Z,37.40
2023-02-15T19:00:35.405Z,39.30
2023-02-15T19:03:03.775Z,38.03
2023-02-15T19:05:33.626Z,38.78
2023-02-15T19:08:03.458Z,39.03
2023-02-15T19:10:33.922Z,38.80
2023-02-15T19:13:01.342Z,40.15
2023-02-15T19:15:30.934Z,40.33
2023-02-15T19:17:58.445Z,39.30
2023-02-15T19:20:52.509Z,40.10
2023-02-15T19:23:24.742Z,38.88
2023-02-15T19:25:54.216Z,40.60
2023-02-15T19:28:33.914Z,40.75
2023-02-15T19:31:01.680Z,41.72
2023-02-15T19:33:29.148Z,41.35
2023-02-15T19:35:57.829Z,39.25
2023-02-15T19:38:35.207Z,41.70
2023-02-15T19:41:16.137Z,39.90
2023-02-15T19:43:44.158Z,43.55
2023-02-15T19:46:19.202Z,41.83
2023-02-15T19:48:47.630Z,42.30
2023-02-15T19:51:16.575Z,41.38
2023-02-15T19:53:45.429Z,42.17
2023-02-15T19:56:27.107Z,41.25
2023-02-15T19:58:57.949Z,38.95
2023-02-15T20:01:25.632Z,40.22
2023-02-15T20:03:53.542Z,40.05
2023-02-15T20:06:21.440Z,39.05
2023-02-15T20:08:48.849Z,39.78
2023-02-15T20:11:16.727Z,38.13
2023-02-15T20:13:43.988Z,37.58
2023-02-15T20:16:11.647Z,35.65
2023-02-15T20:18:39.009Z,37.33
2023-02-15T20:21:14.976Z,37.08
2023-02-15T20:23:42.705Z,38.38
2023-02-15T20:26:18.535Z,36.10
2023-02-15T20:28:46.630Z,36.00
2023-02-15T20:31:17.115Z,34.20
2023-02-15T20:33:44.690Z,34.28
2023-02-15T20:36:18.470Z,35.13
2023-02-15T20:38:46.695Z,35.17
2023-02-15T20:41:36.075Z,36.42
2023-02-15T20:44:25.300Z,34.80
2023-02-15T20:46:59.177Z,37.00
2023-02-15T20:49:28.137Z,36.80
2023-02-15T20:51:57.689Z,37.55
2023-02-15T20:54:34.488Z,39.38
2023-02-15T20:57:02.482Z,37.95
2023-02-15T20:59:32.958Z,38.13
2023-02-15T21:02:16.894Z,38.15
2023-02-15T21:04:44.478Z,39.08
2023-02-15T21:07:21.886Z,38.30
2023-02-15T21:09:49.792Z,38.42
2023-02-15T21:12:21.227Z,39.38
2023-02-15T21:14:48.581Z,39.80
2023-02-15T21:17:17.621Z,36.33
2023-02-15T21:19:45.025Z,38.30
2023-02-15T21:22:16.168Z,39.85
2023-02-15T21:24:53.631Z,37.63
2023-02-15T21:27:22.361Z,39.15
2023-02-15T21:29:49.827Z,39.83
2023-02-15T21:32:19.278Z,38.58
2023-02-15T21:34:46.660Z,37.37
2023-02-15T21:37:33.002Z,36.10
2023-02-15T21:40:00.731Z,39.23
2023-02-15T21:42:47.566Z,37.20
2023-02-15T21:45:35.854Z,37.28
2023-02-15T21:48:03.682Z,37.80
2023-02-15T21:50:50.194Z,38.13
2023-02-15T21:53:32.061Z,37.22
2023-02-15T21:56:03.808Z,37.35
2023-02-15T21:58:36.731Z,37.63
2023-02-15T22:01:05.618Z,37.23
2023-02-15T22:03:37.971Z,38.53
2023-02-15T22:06:06.322Z,35.67
2023-02-15T22:08:34.449Z,37.97
2023-02-15T22:11:02.098Z,35.97
2023-02-15T22:13:33.983Z,38.23
2023-02-15T22:16:03.284Z,35.20
2023-02-15T22:18:34.465Z,40.10
2023-02-15T22:21:04.449Z,37.83
2023-02-15T22:23:32.461Z,35.53
2023-02-15T22:26:06.174Z,36.92
2023-02-15T22:28:40.503Z,37.47
2023-02-15T22:31:18.822Z,37.23
2023-02-15T22:33:49.789Z,35.57
2023-02-15T22:36:30.256Z,37.80
2023-02-15T22:38:58.362Z,37.43
2023-02-15T22:41:30.302Z,36.97
2023-02-15T22:43:58.481Z,38.13
2023-02-15T22:46:26.748Z,36.63
2023-02-15T22:48:54.569Z,37.20
2023-02-15T22:51:24.653Z,38.83
2023-02-15T22:53:53.897Z,38.22
2023-02-15T22:56:36.842Z,39.17
2023-02-15T22:59:10.796Z,39.55
2023-02-15T23:01:38.767Z,36.17
2023-02-15T23:04:06.461Z,39.97
2023-02-15T23:06:34.735Z,39.45
2023-02-15T23:09:02.434Z,38.87
2023-02-15T23:11:29.800Z,37.03
2023-02-15T23:13:57.626Z,39.13
2023-02-15T23:16:24.969Z,38.30
2023-02-15T23:18:52.553Z,38.00
2023-02-15T23:21:24.993Z,39.67
2023-02-15T23:24:23.200Z,38.35
2023-02-15T23:26:51.189Z,36.67
2023-02-15T23:29:24.340Z,37.90
2023-02-15T23:31:55.085Z,36.40
2023-02-15T23:34:29.436Z,36.78
2023-02-15T23:36:57.357Z,37.37
2023-02-15T23:39:47.515Z,39.10
2023-02-15T23:42:27.615Z,38.33
2023-02-15T23:44:55.555Z,35.80
2023-02-15T23:47:54.798Z,35.53
2023-02-15T23:50:29.428Z,35.05
2023-02-15T23:52:57.922Z,34.10
2023-02-15T23:55:43.285Z,33.43
2023-02-15T23:58:22.213Z,34.47
